Impacts TAF Board
For situational awareness. Not to be used for flight planning purposes.
IDs:

KHOU - Houston/Hobby Arpt, TX, US

Issued at 0301 UTC 07 Jun 2020
Updated at 0318 UTC 07 Jun 2020
Potential Impact None Slight Moderate High
Time0253Z 07/04Z 07/05Z 07/06Z 07/07Z 07/08Z 07/09Z 07/10Z 07/11Z 07/12Z 07/13Z 07/14Z 07/15Z 07/16Z>>
Type OBS PRVL PRVL PRVL PRVL PRVL PRVL PRVL PRVL PRVL PRVL PRVL PRVL PRVL
VIS 10 >6 >6 >6 >6 >6 >6 >6 >6 >6 >6 >6 >6 >6
CIG -- -- -- -- -- -- -- -- -- -- -- -- -- --
Cover SCT SCT SCT SCT SCT SCT SCT SCT SCT SCT SCT SCT SCT SCT
FltCat VFR VFR VFR VFR VFR VFR VFR VFR VFR VFR VFR VFR VFR VFR
WX -- -- -- -- -- -- -- -- -- -- -- -- -- --
WDir 250 VRB VRB VRB VRB VRB VRB VRB VRB VRB 10 10 10 10
WSpd 4 4 4 4 4 4 4 4 4 4 9 9 9 9
WGst -- -- -- -- -- -- -- -- -- -- -- -- -- --
R04/22
XWnd 2 VRB VRB VRB VRB VRB VRB VRB VRB VRB 5 5 5 5
HWnd -4 VRB VRB VRB VRB VRB VRB VRB VRB VRB 7 7 7 7
R12/30
XWnd -4 VRB VRB VRB VRB VRB VRB VRB VRB VRB 7 7 7 7
HWnd -2 VRB VRB VRB VRB VRB VRB VRB VRB VRB -5 -5 -5 -5
R17/35
XWnd -4 VRB VRB VRB VRB VRB VRB VRB VRB VRB 2 2 2 2
HWnd 1 VRB VRB VRB VRB VRB VRB VRB VRB VRB -9 -9 -9 -9
Raw TAF
KHOU 070301Z 0703/0724 VRB04KT P6SM FEW025 SCT250
  FM071300 01009KT P6SM FEW040 SCT250
  FM072000 01009KT P6SM VCTS BKN060CB


Raw METAR
KHOU 070253Z 25004KT 10SM FEW025 SCT250 27/24 A2977 RMK AO2 SLP084 T02720239 53013
KHOU 070153Z 34004KT 10SM FEW045 SCT085 SCT110 BKN250 28/23 A2975 RMK AO2 SLP079 TCU DSNT SW T02780233
KHOU 070053Z 33007KT 10SM SCT050TCU BKN080 BKN110 BKN250 27/23 A2975 RMK AO2 WSHFT 0017 SLP077 TCU VC SW-W ENHNCD CU N T02670228

METAR Board
Radar Display
Forecast Discussion
For situational awareness. Not to be used for flight planning purposes.